Time;durP1;ratioP1;P1;durP2;ratioP2;P2;SDS_P1;SDS_P2;PMS_P1;PMS_P2;Temp;Humidity;BMP_temperature;BMP_pressure;BME280_temperature;BME280_humidity;BME280_pressure;Samples;Min_cycle;Max_cycle;Signal;HPM_P1;HPM_P2
2022/11/23 00:01:47;;;;;;;21.02;12.85;;;;;;;;;;5050070;28;20127;-75
2022/11/23 00:04:14;;;;;;;16.55;11.98;;;;;;;;;;5042667;28;20040;-75
2022/11/23 00:06:40;;;;;;;20.35;13.13;;;;;;;;;;5062478;28;20048;-75
2022/11/23 00:09:06;;;;;;;17.35;12.07;;;;;;;;;;5047835;28;20041;-75
2022/11/23 00:11:34;;;;;;;18.17;12.43;;;;;;;;;;5070245;28;20040;-75
2022/11/23 00:14:00;;;;;;;19.75;12.77;;;;;;;;;;5052820;28;20044;-75
2022/11/23 00:16:27;;;;;;;20.50;12.98;;;;;;;;;;5052938;28;20041;-75
2022/11/23 00:18:57;;;;;;;14.60;12.32;;;;;;;;;;5046447;28;20385;-74
2022/11/23 00:21:24;;;;;;;19.55;13.40;;;;;;;;;;5064161;28;20668;-75
2022/11/23 00:23:51;;;;;;;16.33;12.68;;;;;;;;;;5066707;28;20127;-75
2022/11/23 00:26:17;;;;;;;17.27;12.48;;;;;;;;;;5067664;28;20040;-74
2022/11/23 00:28:44;;;;;;;16.52;13.32;;;;;;;;;;5068491;28;20041;-74
2022/11/23 00:31:11;;;;;;;17.23;12.70;;;;;;;;;;5048267;28;20090;-74
2022/11/23 00:33:37;;;;;;;19.27;13.35;;;;;;;;;;5049547;28;20777;-75
2022/11/23 00:36:05;;;;;;;17.83;13.25;;;;;;;;;;5036932;28;20049;-75
2022/11/23 00:38:31;;;;;;;19.98;13.35;;;;;;;;;;5054618;28;20079;-75
2022/11/23 00:41:01;;;;;;;20.17;12.77;;;;;;;;;;5050817;28;20060;-74
2022/11/23 00:43:28;;;;;;;18.40;13.23;;;;;;;;;;5065925;28;20051;-77
2022/11/23 00:46:03;;;;;;;21.13;12.82;;;;;;;;;;5070930;28;20040;-76
2022/11/23 00:48:29;;;;;;;19.05;13.95;;;;;;;;;;5061450;28;20055;-76
2022/11/23 00:50:55;;;;;;;18.05;13.48;;;;;;;;;;5053652;28;20140;-76
2022/11/23 00:53:21;;;;;;;21.02;13.82;;;;;;;;;;5081558;28;20130;-76
2022/11/23 00:55:54;;;;;;;20.23;13.95;;;;;;;;;;5062918;28;20052;-76
2022/11/23 00:58:21;;;;;;;18.27;13.43;;;;;;;;;;5074067;28;20487;-77
2022/11/23 01:00:47;;;;;;;20.95;13.82;;;;;;;;;;5086335;28;20036;-76
2022/11/23 01:03:13;;;;;;;16.58;13.45;;;;;;;;;;5061865;28;20051;-76
2022/11/23 01:05:39;;;;;;;20.70;13.30;;;;;;;;;;5048670;28;20090;-76
2022/11/23 01:08:05;;;;;;;20.98;14.05;;;;;;;;;;5080969;28;20128;-76
2022/11/23 01:10:32;;;;;;;19.23;13.80;;;;;;;;;;5046912;28;20055;-76
2022/11/23 01:12:58;;;;;;;20.83;14.02;;;;;;;;;;5071685;28;20442;-76
2022/11/23 01:15:25;;;;;;;17.23;13.30;;;;;;;;;;5074745;28;20045;-76
2022/11/23 01:17:51;;;;;;;19.98;13.63;;;;;;;;;;5051737;28;20075;-76
2022/11/23 01:20:17;;;;;;;20.52;14.13;;;;;;;;;;5049530;28;20036;-76
2022/11/23 01:22:43;;;;;;;21.77;15.35;;;;;;;;;;5063475;28;20373;-76
2022/11/23 01:25:09;;;;;;;19.77;14.48;;;;;;;;;;5051275;28;20043;-76
2022/11/23 01:27:35;;;;;;;22.90;15.10;;;;;;;;;;5082900;28;20053;-76
2022/11/23 01:30:01;;;;;;;23.48;15.82;;;;;;;;;;5049630;28;20049;-76
2022/11/23 01:32:27;;;;;;;19.60;15.15;;;;;;;;;;5063360;28;20040;-76
2022/11/23 01:34:53;;;;;;;23.67;15.95;;;;;;;;;;5052984;28;20484;-76
2022/11/23 01:37:19;;;;;;;23.13;16.15;;;;;;;;;;5052966;28;20056;-76
2022/11/23 01:39:45;;;;;;;21.90;16.10;;;;;;;;;;5049808;28;20056;-76
2022/11/23 01:42:11;;;;;;;23.38;16.30;;;;;;;;;;5070204;28;20059;-76
2022/11/23 01:44:38;;;;;;;26.02;15.65;;;;;;;;;;5050367;28;20044;-76
2022/11/23 01:47:08;;;;;;;22.88;16.77;;;;;;;;;;5049521;28;20516;-76
2022/11/23 01:49:37;;;;;;;24.60;17.67;;;;;;;;;;5050655;28;20044;-76
2022/11/23 01:52:05;;;;;;;24.20;17.52;;;;;;;;;;5066195;28;20095;-76
2022/11/23 01:54:34;;;;;;;27.00;17.38;;;;;;;;;;5070096;28;20037;-76
2022/11/23 01:57:02;;;;;;;23.75;16.88;;;;;;;;;;5065949;28;20484;-76
2022/11/23 01:59:30;;;;;;;26.50;18.25;;;;;;;;;;5048226;28;20043;-76
2022/11/23 02:01:56;;;;;;;27.23;18.38;;;;;;;;;;5055066;28;20040;-76
2022/11/23 02:04:23;;;;;;;26.27;19.35;;;;;;;;;;5062032;28;20059;-76
2022/11/23 02:06:50;;;;;;;27.63;18.70;;;;;;;;;;5065167;28;20101;-76
2022/11/23 02:09:16;;;;;;;25.23;18.23;;;;;;;;;;5067458;28;20484;-76
2022/11/23 02:11:43;;;;;;;29.17;19.42;;;;;;;;;;5049549;28;20068;-76
2022/11/23 02:14:09;;;;;;;30.05;19.15;;;;;;;;;;5048563;28;20083;-77
2022/11/23 02:16:37;;;;;;;27.05;18.33;;;;;;;;;;5085057;28;20036;-76
2022/11/23 02:19:04;;;;;;;25.60;19.05;;;;;;;;;;5081203;28;20145;-76
2022/11/23 02:21:30;;;;;;;29.20;19.85;;;;;;;;;;5045538;28;20040;-77
2022/11/23 02:24:14;;;;;;;28.88;19.45;;;;;;;;;;5064540;28;20117;-76
2022/11/23 02:26:41;;;;;;;27.80;18.67;;;;;;;;;;5047104;28;20052;-76
2022/11/23 02:29:16;;;;;;;25.17;16.38;;;;;;;;;;5051762;28;20139;-76
2022/11/23 02:31:42;;;;;;;25.23;18.55;;;;;;;;;;5052819;28;20044;-76
2022/11/23 02:34:08;;;;;;;28.63;18.40;;;;;;;;;;5046136;28;20722;-76
2022/11/23 02:36:36;;;;;;;28.45;18.92;;;;;;;;;;5050971;28;20748;-76
2022/11/23 02:39:13;;;;;;;29.55;20.60;;;;;;;;;;5066379;28;20048;-76
2022/11/23 02:41:53;;;;;;;31.27;20.10;;;;;;;;;;5073233;28;20052;-76
2022/11/23 02:44:34;;;;;;;32.35;21.80;;;;;;;;;;5047866;28;20400;-76
2022/11/23 02:47:00;;;;;;;27.48;19.35;;;;;;;;;;5075212;28;20090;-76
2022/11/23 02:49:27;;;;;;;29.08;19.92;;;;;;;;;;5051321;28;20123;-76
2022/11/23 02:51:53;;;;;;;34.80;21.98;;;;;;;;;;5068819;28;20496;-76
2022/11/23 02:54:19;;;;;;;34.88;21.92;;;;;;;;;;5068266;28;20033;-76
2022/11/23 02:56:45;;;;;;;33.40;21.58;;;;;;;;;;5046236;28;20068;-76
2022/11/23 02:59:11;;;;;;;32.90;20.40;;;;;;;;;;5068801;28;20041;-76
2022/11/23 03:01:39;;;;;;;32.92;19.95;;;;;;;;;;5058991;28;20486;-76
2022/11/23 03:04:05;;;;;;;33.15;21.92;;;;;;;;;;5082889;28;20040;-77
2022/11/23 03:06:31;;;;;;;34.72;21.13;;;;;;;;;;5069924;28;20044;-76
2022/11/23 03:08:57;;;;;;;34.42;20.10;;;;;;;;;;5046666;28;20139;-76
2022/11/23 03:11:23;;;;;;;35.17;21.50;;;;;;;;;;5048539;28;20043;-76
2022/11/23 03:13:49;;;;;;;34.38;22.92;;;;;;;;;;5050933;28;20056;-76
2022/11/23 03:16:15;;;;;;;35.42;22.90;;;;;;;;;;5046930;28;20044;-76
2022/11/23 03:18:41;;;;;;;37.42;21.65;;;;;;;;;;5050725;28;20052;-76
2022/11/23 03:21:08;;;;;;;32.72;22.00;;;;;;;;;;5068640;28;20193;-76
2022/11/23 03:23:34;;;;;;;38.65;21.02;;;;;;;;;;5049988;28;20049;-77
2022/11/23 03:26:00;;;;;;;30.95;21.50;;;;;;;;;;5064331;28;20510;-76
2022/11/23 03:28:26;;;;;;;33.33;21.60;;;;;;;;;;5048754;28;20512;-76
2022/11/23 03:30:53;;;;;;;32.05;19.95;;;;;;;;;;5068803;28;20111;-76
2022/11/23 03:33:19;;;;;;;30.95;20.67;;;;;;;;;;5051039;28;20131;-76
2022/11/23 03:35:45;;;;;;;31.80;20.80;;;;;;;;;;5082428;28;20691;-76
2022/11/23 03:38:11;;;;;;;35.00;22.15;;;;;;;;;;5045784;28;20043;-76
2022/11/23 03:40:37;;;;;;;33.70;21.35;;;;;;;;;;5048540;28;20044;-76
2022/11/23 03:43:03;;;;;;;31.63;20.48;;;;;;;;;;5043069;28;20175;-76
2022/11/23 03:45:29;;;;;;;30.08;20.38;;;;;;;;;;5082609;28;20100;-76
2022/11/23 03:47:55;;;;;;;34.00;21.02;;;;;;;;;;5051271;28;20064;-76
2022/11/23 03:50:21;;;;;;;33.05;20.80;;;;;;;;;;5073401;28;20141;-76
2022/11/23 03:52:50;;;;;;;32.05;20.73;;;;;;;;;;5061323;28;20097;-76
2022/11/23 03:55:16;;;;;;;34.90;22.27;;;;;;;;;;5061381;28;20052;-76
2022/11/23 03:57:42;;;;;;;34.05;20.50;;;;;;;;;;5069189;28;20048;-76
2022/11/23 04:00:09;;;;;;;35.17;21.38;;;;;;;;;;5049444;28;20046;-76
2022/11/23 04:02:35;;;;;;;33.83;22.80;;;;;;;;;;5054687;28;20094;-76
2022/11/23 04:05:01;;;;;;;42.03;22.48;;;;;;;;;;5052576;28;20044;-76
2022/11/23 04:07:27;;;;;;;31.73;21.73;;;;;;;;;;5056062;28;20040;-77
2022/11/23 04:09:53;;;;;;;32.88;21.75;;;;;;;;;;5049517;28;20053;-76
2022/11/23 04:12:19;;;;;;;34.75;21.83;;;;;;;;;;5050238;28;20047;-76
2022/11/23 04:14:45;;;;;;;33.03;22.83;;;;;;;;;;5053147;28;20040;-76
2022/11/23 04:17:11;;;;;;;34.53;22.85;;;;;;;;;;5071020;28;20040;-76
2022/11/23 04:19:37;;;;;;;29.17;20.42;;;;;;;;;;5071201;28;20048;-76
2022/11/23 04:22:03;;;;;;;36.17;22.52;;;;;;;;;;5051951;28;20040;-76
2022/11/23 04:24:29;;;;;;;30.55;19.90;;;;;;;;;;5072299;28;20083;-76
2022/11/23 04:26:55;;;;;;;35.70;22.38;;;;;;;;;;5052114;28;20071;-76
2022/11/23 04:29:21;;;;;;;36.28;22.75;;;;;;;;;;5069342;28;20383;-76
2022/11/23 04:31:47;;;;;;;36.15;23.52;;;;;;;;;;5050717;28;20055;-76
2022/11/23 04:34:13;;;;;;;40.22;24.27;;;;;;;;;;5059707;28;20048;-76
2022/11/23 04:36:39;;;;;;;40.53;23.92;;;;;;;;;;5054392;28;20072;-76
2022/11/23 04:39:06;;;;;;;33.58;21.85;;;;;;;;;;5070643;28;20064;-76
2022/11/23 04:41:32;;;;;;;37.22;23.40;;;;;;;;;;5088152;28;20054;-76
2022/11/23 04:43:59;;;;;;;38.83;24.27;;;;;;;;;;5045874;28;20106;-76
2022/11/23 04:46:25;;;;;;;37.45;23.52;;;;;;;;;;5056130;28;20048;-76
2022/11/23 04:48:51;;;;;;;33.85;21.55;;;;;;;;;;5055222;28;20057;-76
2022/11/23 04:51:17;;;;;;;35.22;22.40;;;;;;;;;;5080698;28;20055;-76
2022/11/23 04:53:43;;;;;;;38.45;22.23;;;;;;;;;;5049609;28;20841;-76
2022/11/23 04:56:09;;;;;;;40.42;23.60;;;;;;;;;;5045615;28;20117;-76
2022/11/23 04:58:35;;;;;;;35.30;22.23;;;;;;;;;;5046686;28;20067;-76
2022/11/23 05:01:01;;;;;;;34.42;22.65;;;;;;;;;;5067871;28;20032;-76
2022/11/23 05:03:28;;;;;;;36.25;22.08;;;;;;;;;;5055985;28;20052;-77
2022/11/23 05:05:54;;;;;;;34.45;21.40;;;;;;;;;;5073334;28;20086;-76
2022/11/23 05:08:20;;;;;;;31.48;22.27;;;;;;;;;;5058137;28;20048;-77
2022/11/23 05:10:46;;;;;;;33.03;21.23;;;;;;;;;;5081234;28;20052;-76
2022/11/23 05:13:12;;;;;;;36.15;20.83;;;;;;;;;;5065607;28;20436;-76
2022/11/23 05:15:38;;;;;;;32.97;20.63;;;;;;;;;;5053809;28;20048;-76
2022/11/23 05:18:09;;;;;;;33.20;19.27;;;;;;;;;;5068597;28;20044;-75
2022/11/23 05:20:35;;;;;;;35.60;20.63;;;;;;;;;;5083051;28;20052;-77
2022/11/23 05:23:01;;;;;;;28.67;19.52;;;;;;;;;;5082484;28;20052;-77
2022/11/23 05:25:27;;;;;;;29.30;18.13;;;;;;;;;;5082459;28;20506;-77
2022/11/23 05:27:53;;;;;;;27.48;19.02;;;;;;;;;;5051266;28;20127;-76
2022/11/23 05:30:19;;;;;;;30.50;19.80;;;;;;;;;;5051851;28;20131;-76
2022/11/23 05:32:48;;;;;;;32.33;19.73;;;;;;;;;;5054385;28;20049;-76
2022/11/23 05:35:14;;;;;;;30.98;20.52;;;;;;;;;;5052414;28;20076;-76
2022/11/23 05:37:40;;;;;;;34.08;20.60;;;;;;;;;;5053760;28;20496;-76
2022/11/23 05:40:07;;;;;;;28.73;18.60;;;;;;;;;;5051711;28;20097;-76
2022/11/23 05:42:33;;;;;;;27.83;19.63;;;;;;;;;;5051460;28;20496;-76
2022/11/23 05:44:59;;;;;;;25.88;18.05;;;;;;;;;;5047615;28;20044;-76
2022/11/23 05:47:28;;;;;;;29.77;20.10;;;;;;;;;;5058842;28;20051;-76
2022/11/23 05:49:54;;;;;;;31.20;20.25;;;;;;;;;;5067111;28;20404;-77
2022/11/23 05:52:20;;;;;;;29.10;18.85;;;;;;;;;;5053042;28;20458;-76
2022/11/23 05:54:46;;;;;;;27.45;19.40;;;;;;;;;;5048595;28;20101;-77
2022/11/23 05:57:14;;;;;;;28.73;18.55;;;;;;;;;;5065326;28;20049;-76
2022/11/23 05:59:40;;;;;;;28.63;19.45;;;;;;;;;;5064814;28;20045;-77
2022/11/23 06:02:06;;;;;;;30.05;19.30;;;;;;;;;;5049850;28;20405;-77
2022/11/23 06:04:32;;;;;;;31.48;18.33;;;;;;;;;;5066546;28;20048;-76
2022/11/23 06:06:59;;;;;;;32.70;20.10;;;;;;;;;;5067687;28;20094;-77
2022/11/23 06:09:26;;;;;;;25.15;17.83;;;;;;;;;;5079732;28;20084;-77
2022/11/23 06:11:52;;;;;;;37.10;24.40;;;;;;;;;;5071718;28;20043;-77
2022/11/23 06:14:24;;;;;;;27.42;17.02;;;;;;;;;;5062254;28;20043;-76
2022/11/23 06:16:50;;;;;;;28.45;18.60;;;;;;;;;;5048915;28;20094;-76
2022/11/23 06:19:16;;;;;;;32.08;19.15;;;;;;;;;;5052012;28;20131;-76
2022/11/23 06:21:42;;;;;;;28.83;18.77;;;;;;;;;;5082216;28;20461;-76
2022/11/23 06:24:08;;;;;;;28.48;19.77;;;;;;;;;;5048700;28;20048;-77
2022/11/23 06:26:34;;;;;;;33.38;19.88;;;;;;;;;;5081177;28;20049;-77
2022/11/23 06:29:00;;;;;;;30.60;19.58;;;;;;;;;;5080049;28;20044;-77
2022/11/23 06:31:26;;;;;;;32.35;18.98;;;;;;;;;;5070475;28;20043;-77
2022/11/23 06:33:52;;;;;;;35.00;20.90;;;;;;;;;;5044126;28;20048;-76
2022/11/23 06:36:18;;;;;;;29.98;20.15;;;;;;;;;;5053725;28;20055;-77
2022/11/23 06:38:44;;;;;;;30.10;19.48;;;;;;;;;;5049341;28;20052;-77
2022/11/23 06:41:10;;;;;;;31.77;19.90;;;;;;;;;;5062391;28;20457;-76
2022/11/23 06:43:36;;;;;;;37.60;20.65;;;;;;;;;;5052112;28;20039;-76
2022/11/23 06:46:04;;;;;;;30.20;20.02;;;;;;;;;;5083034;28;20044;-75
2022/11/23 06:48:30;;;;;;;33.78;20.95;;;;;;;;;;5074326;28;20153;-75
2022/11/23 06:50:58;;;;;;;30.67;20.90;;;;;;;;;;5071065;28;20063;-76
2022/11/23 06:53:25;;;;;;;28.42;19.52;;;;;;;;;;5085416;28;20048;-76
2022/11/23 06:55:51;;;;;;;28.60;19.95;;;;;;;;;;5067243;28;20093;-76
2022/11/23 06:58:17;;;;;;;30.95;20.50;;;;;;;;;;5052553;28;20048;-75
2022/11/23 07:00:43;;;;;;;32.50;20.27;;;;;;;;;;5048849;28;20052;-75
2022/11/23 07:03:22;;;;;;;31.27;19.75;;;;;;;;;;5082920;28;20048;-76
2022/11/23 07:05:49;;;;;;;29.52;20.45;;;;;;;;;;5053688;28;20048;-75
2022/11/23 07:08:15;;;;;;;29.17;20.83;;;;;;;;;;5071279;28;20078;-76
2022/11/23 07:10:41;;;;;;;28.48;19.73;;;;;;;;;;5076935;28;20040;-76
2022/11/23 07:13:08;;;;;;;29.77;19.73;;;;;;;;;;5056228;28;20077;-76
2022/11/23 07:15:34;;;;;;;25.25;18.75;;;;;;;;;;5048201;28;20037;-76
2022/11/23 07:18:00;;;;;;;27.58;18.88;;;;;;;;;;5044227;28;20049;-75
2022/11/23 07:20:26;;;;;;;27.40;17.75;;;;;;;;;;5043650;28;20047;-76
2022/11/23 07:22:59;;;;;;;28.27;18.27;;;;;;;;;;5060835;28;20044;-76
2022/11/23 07:25:25;;;;;;;25.20;17.98;;;;;;;;;;5080113;28;20052;-76
2022/11/23 07:27:58;;;;;;;29.42;18.50;;;;;;;;;;5076138;28;20055;-75
2022/11/23 07:30:25;;;;;;;30.65;18.40;;;;;;;;;;5040617;28;20440;-76
2022/11/23 07:32:51;;;;;;;25.48;17.02;;;;;;;;;;5043899;28;20534;-76
2022/11/23 07:35:18;;;;;;;24.05;17.48;;;;;;;;;;5044770;28;20080;-76
2022/11/23 07:37:44;;;;;;;25.23;16.42;;;;;;;;;;5059212;28;20056;-76
2022/11/23 07:40:10;;;;;;;24.00;16.02;;;;;;;;;;5059209;28;20386;-75
2022/11/23 07:42:36;;;;;;;25.08;16.45;;;;;;;;;;5061131;28;20044;-75
2022/11/23 07:45:03;;;;;;;22.73;16.23;;;;;;;;;;5050353;28;20078;-75
2022/11/23 07:47:29;;;;;;;22.48;14.98;;;;;;;;;;5055602;28;20048;-75
2022/11/23 07:49:55;;;;;;;25.10;15.57;;;;;;;;;;5047347;28;20072;-75
2022/11/23 07:52:22;;;;;;;26.67;15.43;;;;;;;;;;5061870;28;20715;-76
2022/11/23 07:54:48;;;;;;;24.15;15.70;;;;;;;;;;5055936;28;20043;-75
2022/11/23 07:57:14;;;;;;;23.70;15.25;;;;;;;;;;5070291;28;20127;-76
2022/11/23 07:59:40;;;;;;;22.40;15.02;;;;;;;;;;5049183;28;20138;-76
2022/11/23 08:02:09;;;;;;;25.05;15.50;;;;;;;;;;5088469;28;20123;-76
2022/11/23 08:04:35;;;;;;;21.23;14.00;;;;;;;;;;5049636;28;20431;-75
2022/11/23 08:07:02;;;;;;;23.65;15.57;;;;;;;;;;5080224;28;20056;-75
2022/11/23 08:09:28;;;;;;;22.70;14.52;;;;;;;;;;5068449;28;20048;-76
2022/11/23 08:11:54;;;;;;;21.13;13.77;;;;;;;;;;5063741;28;20119;-75
2022/11/23 08:14:20;;;;;;;18.83;15.02;;;;;;;;;;5079718;28;20044;-75
2022/11/23 08:16:50;;;;;;;18.33;13.95;;;;;;;;;;5053836;28;20080;-76
2022/11/23 08:19:17;;;;;;;21.48;14.07;;;;;;;;;;5052773;28;20079;-75
2022/11/23 08:21:43;;;;;;;20.05;14.10;;;;;;;;;;5074412;28;20044;-75
2022/11/23 08:24:09;;;;;;;21.38;14.35;;;;;;;;;;5063224;28;20054;-75
2022/11/23 08:26:35;;;;;;;20.92;13.70;;;;;;;;;;5087829;28;20090;-75
2022/11/23 08:29:01;;;;;;;22.77;14.73;;;;;;;;;;5070744;28;20488;-75
2022/11/23 08:31:27;;;;;;;21.15;14.25;;;;;;;;;;5045812;28;20041;-76
2022/11/23 08:33:53;;;;;;;24.10;15.45;;;;;;;;;;5053457;28;20044;-75
2022/11/23 08:36:19;;;;;;;25.05;14.27;;;;;;;;;;5069382;28;20044;-75
2022/11/23 08:38:46;;;;;;;21.42;14.35;;;;;;;;;;5053442;28;20064;-76
2022/11/23 08:41:12;;;;;;;21.10;13.73;;;;;;;;;;5082778;28;20425;-75
2022/11/23 08:43:38;;;;;;;20.63;13.93;;;;;;;;;;5053339;28;20412;-76
2022/11/23 08:46:04;;;;;;;21.00;13.85;;;;;;;;;;5065243;28;20048;-75
2022/11/23 08:48:30;;;;;;;21.63;12.98;;;;;;;;;;5066520;28;20397;-75
2022/11/23 08:51:01;;;;;;;19.40;13.98;;;;;;;;;;5059416;28;20104;-75
2022/11/23 08:53:27;;;;;;;20.02;13.45;;;;;;;;;;5060952;28;20128;-76
2022/11/23 08:55:53;;;;;;;20.27;13.23;;;;;;;;;;5052917;28;20065;-75
2022/11/23 08:58:19;;;;;;;21.27;14.48;;;;;;;;;;5080964;28;20049;-75
2022/11/23 09:00:45;;;;;;;24.35;13.93;;;;;;;;;;5052010;28;20045;-76
2022/11/23 09:03:11;;;;;;;19.45;13.77;;;;;;;;;;5051026;28;20131;-75
2022/11/23 09:05:38;;;;;;;19.60;13.57;;;;;;;;;;5046247;28;20492;-75
2022/11/23 09:08:04;;;;;;;20.40;13.05;;;;;;;;;;5055363;28;20128;-76
2022/11/23 09:10:30;;;;;;;22.05;13.15;;;;;;;;;;5045643;28;20045;-76
2022/11/23 09:12:58;;;;;;;19.63;12.95;;;;;;;;;;5064021;28;20053;-76
2022/11/23 09:15:24;;;;;;;21.13;14.38;;;;;;;;;;5077367;28;20120;-76
2022/11/23 09:17:50;;;;;;;20.50;13.65;;;;;;;;;;5053754;28;20099;-76
2022/11/23 09:20:16;;;;;;;21.90;13.32;;;;;;;;;;5044811;28;20461;-76
2022/11/23 09:22:53;;;;;;;18.90;12.77;;;;;;;;;;5043075;28;20059;-76
2022/11/23 09:25:19;;;;;;;17.80;12.65;;;;;;;;;;5051303;28;20049;-76
2022/11/23 09:27:46;;;;;;;20.60;12.77;;;;;;;;;;5048838;28;20049;-75
2022/11/23 09:30:12;;;;;;;20.55;13.40;;;;;;;;;;5077941;28;20494;-76
2022/11/23 09:32:38;;;;;;;24.98;12.85;;;;;;;;;;5052532;28;20132;-76
2022/11/23 09:35:04;;;;;;;19.67;12.70;;;;;;;;;;5039811;28;20099;-75
2022/11/23 09:37:30;;;;;;;20.80;11.82;;;;;;;;;;5043751;28;20079;-75
2022/11/23 09:39:56;;;;;;;18.20;12.35;;;;;;;;;;5049879;28;20084;-75
2022/11/23 09:42:22;;;;;;;17.25;11.02;;;;;;;;;;5053691;28;20507;-76
2022/11/23 09:44:51;;;;;;;17.95;11.30;;;;;;;;;;5082063;28;20049;-76
2022/11/23 09:47:35;;;;;;;19.85;9.68;;;;;;;;;;5050725;28;20041;-76
2022/11/23 09:50:08;;;;;;;18.08;10.20;;;;;;;;;;5043140;28;20565;-75
2022/11/23 09:52:35;;;;;;;14.48;8.90;;;;;;;;;;5043377;28;20102;-75
2022/11/23 09:55:24;;;;;;;17.35;7.95;;;;;;;;;;5046843;28;20049;-75
2022/11/23 09:57:51;;;;;;;14.05;6.95;;;;;;;;;;5053799;28;20567;-75
2022/11/23 10:00:21;;;;;;;12.30;6.72;;;;;;;;;;5049619;28;20037;-75
2022/11/23 10:02:47;;;;;;;16.92;5.35;;;;;;;;;;5062207;28;20110;-76
2022/11/23 10:05:18;;;;;;;15.60;4.82;;;;;;;;;;5078306;28;20049;-75
2022/11/23 10:08:04;;;;;;;9.95;4.45;;;;;;;;;;5079568;28;20048;-76
2022/11/23 10:10:33;;;;;;;12.32;4.60;;;;;;;;;;5051597;28;20459;-75
2022/11/23 10:13:18;;;;;;;12.00;4.05;;;;;;;;;;5042434;28;20045;-75
2022/11/23 10:15:47;;;;;;;12.35;4.38;;;;;;;;;;5064730;28;20052;-75
2022/11/23 10:18:16;;;;;;;10.52;3.92;;;;;;;;;;5046492;28;20080;-75
2022/11/23 10:20:42;;;;;;;10.80;4.20;;;;;;;;;;5063499;28;20041;-75
2022/11/23 10:23:26;;;;;;;12.63;4.53;;;;;;;;;;5050874;28;20059;-75
2022/11/23 10:25:53;;;;;;;12.27;4.32;;;;;;;;;;5053933;28;20044;-75
2022/11/23 10:28:20;;;;;;;15.23;4.20;;;;;;;;;;5066470;28;20056;-75
2022/11/23 10:31:00;;;;;;;15.75;5.25;;;;;;;;;;5049553;28;20516;-76
2022/11/23 10:33:31;;;;;;;12.85;4.80;;;;;;;;;;5049314;28;20118;-75
2022/11/23 10:35:57;;;;;;;12.30;5.07;;;;;;;;;;5058081;28;20388;-75
2022/11/23 10:38:27;;;;;;;13.85;4.50;;;;;;;;;;5054207;28;20065;-75
2022/11/23 10:41:01;;;;;;;14.82;4.38;;;;;;;;;;5084697;28;20048;-75
2022/11/23 10:43:29;;;;;;;10.80;4.47;;;;;;;;;;5074427;28;20142;-76
2022/11/23 10:46:14;;;;;;;12.25;4.53;;;;;;;;;;5061395;28;20048;-76
2022/11/23 10:48:40;;;;;;;12.63;4.85;;;;;;;;;;5048270;28;20080;-75
2022/11/23 10:51:29;;;;;;;10.75;4.90;;;;;;;;;;5082145;28;20052;-75
2022/11/23 10:54:06;;;;;;;13.43;4.72;;;;;;;;;;5076847;28;20407;-74
2022/11/23 10:56:33;;;;;;;12.10;4.50;;;;;;;;;;5078702;28;20040;-75
2022/11/23 10:58:59;;;;;;;14.60;4.80;;;;;;;;;;5051008;28;20097;-75
2022/11/23 11:01:28;;;;;;;13.23;4.75;;;;;;;;;;5047956;28;20033;-75
2022/11/23 11:03:55;;;;;;;11.95;4.40;;;;;;;;;;5069538;28;20109;-75
2022/11/23 11:06:25;;;;;;;10.48;4.10;;;;;;;;;;5085647;28;20044;-75
2022/11/23 11:08:53;;;;;;;15.02;4.22;;;;;;;;;;5051315;28;20504;-75
2022/11/23 11:11:27;;;;;;;9.13;3.92;;;;;;;;;;5081192;28;20044;-75
2022/11/23 11:14:11;;;;;;;11.75;4.35;;;;;;;;;;5055064;28;20048;-74
2022/11/23 11:16:46;;;;;;;11.45;4.90;;;;;;;;;;5071048;28;20048;-75
2022/11/23 11:19:25;;;;;;;11.85;4.30;;;;;;;;;;5081809;28;20384;-75
2022/11/23 11:21:51;;;;;;;11.50;4.22;;;;;;;;;;5070090;28;20044;-75
2022/11/23 11:24:19;;;;;;;7.32;3.70;;;;;;;;;;5049369;28;20044;-75
2022/11/23 11:26:50;;;;;;;12.05;3.50;;;;;;;;;;5040255;28;20041;-75
2022/11/23 11:29:29;;;;;;;11.48;4.35;;;;;;;;;;5078064;28;20106;-75
2022/11/23 11:31:57;;;;;;;12.40;5.00;;;;;;;;;;5055256;28;20131;-75
2022/11/23 11:34:38;;;;;;;12.05;3.58;;;;;;;;;;5069051;28;20074;-78
2022/11/23 11:37:23;;;;;;;14.20;3.67;;;;;;;;;;5067207;28;20171;-75
2022/11/23 11:39:55;;;;;;;13.80;4.10;;;;;;;;;;5048296;28;20504;-75
2022/11/23 11:42:26;;;;;;;11.57;3.47;;;;;;;;;;5065843;28;20066;-75
2022/11/23 11:44:54;;;;;;;9.43;3.72;;;;;;;;;;5085175;28;20055;-75
2022/11/23 11:47:23;;;;;;;13.48;4.43;;;;;;;;;;5080535;28;20051;-75
2022/11/23 11:49:54;;;;;;;10.45;3.75;;;;;;;;;;5085044;28;20075;-75
2022/11/23 11:52:22;;;;;;;11.77;3.70;;;;;;;;;;5052751;28;20472;-74
2022/11/23 11:55:07;;;;;;;11.75;3.25;;;;;;;;;;5072689;28;20073;-74
2022/11/23 11:57:39;;;;;;;9.40;3.40;;;;;;;;;;5050949;28;20079;-74
2022/11/23 12:00:10;;;;;;;10.23;3.00;;;;;;;;;;5086138;28;20055;-74
2022/11/23 12:03:02;;;;;;;10.52;3.25;;;;;;;;;;5048481;28;20120;-74
2022/11/23 12:05:44;;;;;;;8.10;3.60;;;;;;;;;;5043023;28;20052;-74
2022/11/23 12:08:23;;;;;;;8.82;3.17;;;;;;;;;;5049950;28;20051;-76
2022/11/23 12:10:51;;;;;;;13.23;3.97;;;;;;;;;;5045207;28;20041;-75
2022/11/23 12:13:22;;;;;;;10.68;3.92;;;;;;;;;;5070973;28;20102;-75
2022/11/23 12:16:14;;;;;;;14.50;3.85;;;;;;;;;;5077698;28;20155;-72
2022/11/23 12:18:45;;;;;;;11.45;3.30;;;;;;;;;;5054503;28;20052;-75
2022/11/23 12:21:11;;;;;;;9.65;3.55;;;;;;;;;;5049640;28;20105;-76
2022/11/23 12:23:46;;;;;;;11.38;3.45;;;;;;;;;;5067041;28;20044;-73
2022/11/23 12:26:15;;;;;;;10.32;3.22;;;;;;;;;;5048870;28;20048;-74
2022/11/23 12:29:00;;;;;;;10.40;3.42;;;;;;;;;;5080452;28;20044;-74
2022/11/23 12:31:38;;;;;;;11.85;4.53;;;;;;;;;;5077887;28;20518;-73
2022/11/23 12:34:36;;;;;;;12.55;3.42;;;;;;;;;;5054910;28;20448;-74
2022/11/23 12:37:05;;;;;;;10.50;3.75;;;;;;;;;;5078036;28;20053;-73
2022/11/23 12:39:38;;;;;;;8.48;3.63;;;;;;;;;;5061457;28;20505;-74
2022/11/23 12:42:20;;;;;;;10.90;3.67;;;;;;;;;;5036317;28;20132;-74
2022/11/23 12:44:49;;;;;;;8.48;3.33;;;;;;;;;;5069082;28;20044;-73
2022/11/23 12:47:15;;;;;;;11.30;3.55;;;;;;;;;;5068939;28;20435;-73
2022/11/23 12:49:50;;;;;;;9.27;3.20;;;;;;;;;;5055249;28;20127;-73
2022/11/23 12:52:25;;;;;;;6.32;2.97;;;;;;;;;;5088979;28;20050;-73
2022/11/23 12:55:10;;;;;;;12.73;4.50;;;;;;;;;;5083059;28;20131;-74
2022/11/23 12:57:41;;;;;;;12.05;3.60;;;;;;;;;;5061994;28;20052;-73
2022/11/23 13:00:15;;;;;;;11.98;3.40;;;;;;;;;;5093613;28;20499;-73
2022/11/23 13:02:46;;;;;;;9.30;3.30;;;;;;;;;;5069690;28;20053;-74
2022/11/23 13:05:16;;;;;;;11.50;3.40;;;;;;;;;;5099953;28;20078;-74
2022/11/23 13:07:46;;;;;;;9.45;3.35;;;;;;;;;;5052286;28;20063;-74
2022/11/23 13:10:31;;;;;;;8.23;3.40;;;;;;;;;;5074777;28;20400;-74
2022/11/23 13:12:57;;;;;;;9.00;3.15;;;;;;;;;;5070527;28;20044;-74
2022/11/23 13:15:26;;;;;;;8.82;3.13;;;;;;;;;;5050397;28;21404;-74
2022/11/23 13:17:57;;;;;;;9.48;3.10;;;;;;;;;;5087883;28;20076;-74
2022/11/23 13:20:39;;;;;;;8.55;3.00;;;;;;;;;;5059045;28;20444;-73
2022/11/23 13:23:05;;;;;;;9.85;3.38;;;;;;;;;;5071295;28;20476;-74
2022/11/23 13:25:32;;;;;;;11.23;2.92;;;;;;;;;;5077721;28;21129;-73
2022/11/23 13:27:58;;;;;;;9.27;3.33;;;;;;;;;;5064573;28;20067;-74
2022/11/23 13:30:31;;;;;;;10.73;3.50;;;;;;;;;;5083239;28;20156;-74
2022/11/23 13:33:02;;;;;;;9.77;3.35;;;;;;;;;;5043088;28;20060;-74
2022/11/23 13:35:28;;;;;;;9.98;3.33;;;;;;;;;;5070352;28;20051;-74
2022/11/23 13:37:59;;;;;;;10.57;3.08;;;;;;;;;;5080935;28;20499;-74
2022/11/23 13:40:32;;;;;;;7.13;3.40;;;;;;;;;;5071584;28;20049;-74
2022/11/23 13:42:58;;;;;;;;;;;;;;;;;;5070098;28;20162;-74
2022/11/23 13:45:25;;;;;;;5.20;2.88;;;;;;;;;;5074552;28;20391;-74
2022/11/23 13:48:11;;;;;;;5.90;3.20;;;;;;;;;;5057328;28;20121;-73
2022/11/23 13:50:39;;;;;;;12.18;4.28;;;;;;;;;;5068607;28;20052;-73
2022/11/23 13:53:25;;;;;;;8.40;3.35;;;;;;;;;;5073894;28;20035;-74
2022/11/23 13:55:52;;;;;;;6.55;3.10;;;;;;;;;;5060151;28;20052;-73
2022/11/23 13:58:21;;;;;;;7.18;3.45;;;;;;;;;;5070607;28;20049;-74
2022/11/23 14:00:54;;;;;;;5.97;3.33;;;;;;;;;;5083068;28;20064;-74
2022/11/23 14:03:38;;;;;;;8.10;3.30;;;;;;;;;;5080985;28;20391;-74
2022/11/23 14:06:13;;;;;;;6.22;3.22;;;;;;;;;;5039992;28;20051;-74
2022/11/23 14:08:40;;;;;;;9.25;3.55;;;;;;;;;;5088480;28;20139;-74
2022/11/23 14:11:11;;;;;;;10.48;3.42;;;;;;;;;;5045888;28;20164;-74
2022/11/23 14:13:37;;;;;;;9.88;3.47;;;;;;;;;;5069933;28;20051;-74
2022/11/23 14:16:04;;;;;;;9.43;3.30;;;;;;;;;;5071879;28;20120;-74
2022/11/23 14:18:56;;;;;;;7.65;3.05;;;;;;;;;;5071058;28;20040;-74
2022/11/23 14:21:35;;;;;;;8.18;3.30;;;;;;;;;;5087198;28;20147;-74
2022/11/23 14:24:10;;;;;;;10.38;3.05;;;;;;;;;;5053689;28;20412;-74
2022/11/23 14:27:01;;;;;;;8.23;2.90;;;;;;;;;;5055193;28;20447;-74
2022/11/23 14:29:36;;;;;;;11.50;2.92;;;;;;;;;;5082534;28;20222;-74
2022/11/23 14:32:21;;;;;;;7.95;3.30;;;;;;;;;;5053847;28;20127;-74
2022/11/23 14:34:56;;;;;;;6.05;3.03;;;;;;;;;;5087114;28;20561;-74